createdAt,value
2018-03-20T00:00:26.973Z,-0.46
2018-03-20T00:01:26.940Z,-0.48
2018-03-20T00:02:26.927Z,-0.45
2018-03-20T00:03:26.902Z,-0.54
2018-03-20T00:04:26.859Z,-0.53
2018-03-20T00:05:26.837Z,-0.56
2018-03-20T00:06:26.826Z,-0.44
2018-03-20T00:07:26.776Z,-0.48
2018-03-20T00:08:26.758Z,-0.48
2018-03-20T00:09:26.734Z,-0.46
2018-03-20T00:10:26.696Z,-0.42
2018-03-20T00:11:26.672Z,-0.46
2018-03-20T00:12:26.641Z,-0.57
2018-03-20T00:13:26.630Z,-0.59
2018-03-20T00:14:26.586Z,-0.51
2018-03-20T00:15:26.572Z,-0.49
2018-03-20T00:16:26.567Z,-0.39
2018-03-20T00:17:26.506Z,-0.46
2018-03-20T00:18:26.475Z,-0.44
2018-03-20T00:19:26.468Z,-0.45
2018-03-20T00:20:26.432Z,-0.38
2018-03-20T00:21:26.399Z,-0.48
2018-03-20T00:22:26.377Z,-0.45
2018-03-20T00:23:26.340Z,-0.49
2018-03-20T00:24:26.317Z,-0.49
2018-03-20T00:25:26.302Z,-0.48
2018-03-20T00:26:26.261Z,-0.56
2018-03-20T00:27:26.242Z,-0.49
2018-03-20T00:28:26.205Z,-0.42
2018-03-20T00:29:26.184Z,-0.42
2018-03-20T00:30:26.149Z,-0.36
2018-03-20T00:31:26.123Z,-0.44
2018-03-20T00:32:26.097Z,-0.35
2018-03-20T00:33:26.069Z,-0.21
2018-03-20T00:34:26.041Z,-0.13
2018-03-20T00:35:26.053Z,-0.17
2018-03-20T00:36:25.989Z,-0.17
2018-03-20T00:37:25.968Z,-0.10
2018-03-20T00:38:25.934Z,-0.07
2018-03-20T00:39:25.922Z,-0.09
2018-03-20T00:40:25.887Z,-0.05
2018-03-20T00:41:25.864Z,-0.06
2018-03-20T00:42:25.827Z,-0.13
2018-03-20T00:43:25.798Z,-0.12
2018-03-20T00:44:25.772Z,-0.07
2018-03-20T00:45:25.746Z,-0.15
2018-03-20T00:46:25.716Z,0.01
2018-03-20T00:47:25.695Z,-0.03
2018-03-20T00:48:25.664Z,0.02
2018-03-20T00:49:25.637Z,0.01
2018-03-20T00:50:25.606Z,0.18
2018-03-20T00:51:25.581Z,0.11
2018-03-20T00:52:25.554Z,0.20
2018-03-20T00:53:25.530Z,0.13
2018-03-20T00:54:25.501Z,0.16
2018-03-20T00:55:25.473Z,0.08
2018-03-20T00:58:10.339Z,0.16
2018-03-20T00:59:10.313Z,0.23
2018-03-20T01:00:10.296Z,0.30
2018-03-20T01:01:10.263Z,0.20
2018-03-20T01:02:10.235Z,0.34
2018-03-20T01:03:10.213Z,0.40
2018-03-20T01:04:10.179Z,0.44
2018-03-20T01:05:10.278Z,0.48
2018-03-20T01:06:10.127Z,0.48
2018-03-20T01:07:10.114Z,0.48
2018-03-20T01:08:10.079Z,0.45
2018-03-20T01:09:10.050Z,0.48
2018-03-20T01:10:10.022Z,0.51
2018-03-20T01:11:10.007Z,0.40
2018-03-20T01:12:09.969Z,0.36
2018-03-20T01:13:09.940Z,0.24
2018-03-20T01:14:09.913Z,0.40
2018-03-20T01:15:09.940Z,0.40
2018-03-20T01:16:09.864Z,0.39
2018-03-20T01:17:09.838Z,0.44
2018-03-20T01:18:09.816Z,0.47
2018-03-20T01:19:09.782Z,0.47
2018-03-20T01:20:09.757Z,0.48
2018-03-20T01:21:09.734Z,0.48
2018-03-20T01:22:09.708Z,0.44
2018-03-20T01:23:09.685Z,0.63
2018-03-20T01:24:09.662Z,0.63
2018-03-20T01:25:09.629Z,0.59
2018-03-20T01:26:09.599Z,0.58
2018-03-20T01:27:09.577Z,0.66
2018-03-20T01:28:09.546Z,0.64
2018-03-20T01:29:09.525Z,0.67
2018-03-20T01:30:09.502Z,0.71
2018-03-20T01:31:09.470Z,0.67
2018-03-20T01:32:09.459Z,0.68
2018-03-20T01:33:09.427Z,0.67
2018-03-20T01:34:09.412Z,0.67
2018-03-20T01:35:09.370Z,0.70
2018-03-20T01:36:09.337Z,0.68
2018-03-20T01:37:09.321Z,0.67
2018-03-20T01:38:09.287Z,0.74
2018-03-20T01:39:09.265Z,0.70
2018-03-20T01:40:09.238Z,0.77
2018-03-20T01:41:09.207Z,0.82
2018-03-20T01:42:09.184Z,0.96
2018-03-20T01:43:09.161Z,0.81
2018-03-20T01:44:09.127Z,0.82
2018-03-20T01:45:09.102Z,0.76
2018-03-20T01:46:09.076Z,0.73
2018-03-20T01:47:09.054Z,0.84
2018-03-20T01:48:09.024Z,0.88
2018-03-20T01:49:08.999Z,0.82
2018-03-20T01:50:08.975Z,0.82
2018-03-20T01:51:08.948Z,0.84
2018-03-20T01:52:08.927Z,0.89
2018-03-20T01:53:08.894Z,0.85
2018-03-20T01:54:08.874Z,0.89
2018-03-20T01:55:08.843Z,0.86
2018-03-20T01:56:08.825Z,0.86
2018-03-20T01:57:08.793Z,0.84
2018-03-20T01:58:08.766Z,0.86
2018-03-20T01:59:08.743Z,0.88
2018-03-20T02:00:08.713Z,0.91
2018-03-20T02:01:08.700Z,0.85
2018-03-20T02:02:08.670Z,0.82
2018-03-20T02:03:08.737Z,0.81
2018-03-20T02:04:08.611Z,0.74
2018-03-20T02:05:08.585Z,0.78
2018-03-20T02:06:08.565Z,0.81
2018-03-20T02:07:08.534Z,0.85
2018-03-20T02:08:08.506Z,0.86
2018-03-20T02:09:08.481Z,0.84
2018-03-20T02:10:08.475Z,0.94
2018-03-20T02:11:08.432Z,0.88
2018-03-20T02:12:08.404Z,0.84
2018-03-20T02:13:08.382Z,0.86
2018-03-20T02:14:08.359Z,0.88
2018-03-20T02:15:08.342Z,0.92
2018-03-20T02:16:08.305Z,0.92
2018-03-20T02:17:08.276Z,0.84
2018-03-20T02:18:08.250Z,0.94
2018-03-20T02:19:08.228Z,0.99
2018-03-20T02:20:08.199Z,1.00
2018-03-20T02:21:08.172Z,1.02
2018-03-20T02:22:08.159Z,0.95
2018-03-20T02:23:08.123Z,0.99
2018-03-20T02:24:08.102Z,1.03
2018-03-20T02:25:08.072Z,1.02
2018-03-20T02:26:08.044Z,1.06
2018-03-20T02:27:08.022Z,1.02
2018-03-20T02:28:08.005Z,1.03
2018-03-20T02:29:07.968Z,1.04
2018-03-20T02:30:07.944Z,1.00
2018-03-20T02:31:07.921Z,1.12
2018-03-20T02:32:07.941Z,1.10
2018-03-20T02:33:07.864Z,1.12
2018-03-20T02:34:07.839Z,1.10
2018-03-20T02:35:07.854Z,1.09
2018-03-20T02:36:07.789Z,1.14
2018-03-20T02:37:07.760Z,1.20
2018-03-20T02:38:07.738Z,1.10
2018-03-20T02:39:07.716Z,1.02
2018-03-20T02:40:07.683Z,1.04
2018-03-20T02:41:07.659Z,1.13
2018-03-20T02:42:07.779Z,1.12
2018-03-20T02:43:07.607Z,1.18
2018-03-20T02:44:07.588Z,1.27
2018-03-20T02:45:07.553Z,1.28
2018-03-20T02:46:07.531Z,1.22
2018-03-20T02:47:07.501Z,1.30
2018-03-20T02:48:07.476Z,1.27
2018-03-20T02:49:07.450Z,1.16
2018-03-20T02:50:07.425Z,1.09
2018-03-20T02:51:07.442Z,1.09
2018-03-20T02:52:07.371Z,1.02
2018-03-20T02:53:07.350Z,1.04
2018-03-20T02:54:07.321Z,0.95
2018-03-20T02:55:07.412Z,1.07
2018-03-20T02:56:07.277Z,1.03
2018-03-20T02:57:07.241Z,1.14
2018-03-20T02:58:07.282Z,1.00
2018-03-20T02:59:07.191Z,1.00
2018-03-20T03:00:07.170Z,1.03
2018-03-20T03:01:07.149Z,1.03
2018-03-20T03:02:07.116Z,1.02
2018-03-20T03:03:07.092Z,0.92
2018-03-20T03:04:07.060Z,0.84
2018-03-20T03:05:07.036Z,0.96
2018-03-20T03:06:07.010Z,0.86
2018-03-20T03:07:06.985Z,0.84
2018-03-20T03:08:06.958Z,0.88
2018-03-20T03:09:06.931Z,0.92
2018-03-20T03:10:06.907Z,0.99
2018-03-20T03:11:06.892Z,0.89
2018-03-20T03:12:06.858Z,0.91
2018-03-20T03:13:06.834Z,0.91
2018-03-20T03:14:06.812Z,0.88
2018-03-20T03:15:06.777Z,0.81
2018-03-20T03:16:06.751Z,0.86
2018-03-20T03:17:06.750Z,0.94
2018-03-20T03:18:06.698Z,0.84
2018-03-20T03:19:06.670Z,0.84
2018-03-20T03:20:06.653Z,0.86
2018-03-20T03:21:06.618Z,0.91
2018-03-20T03:22:06.591Z,1.04
2018-03-20T03:23:06.567Z,1.00
2018-03-20T03:24:06.564Z,0.99
2018-03-20T03:25:06.514Z,0.96
2018-03-20T03:26:06.486Z,0.99
2018-03-20T03:27:06.537Z,1.07
2018-03-20T03:28:06.436Z,1.06
2018-03-20T03:29:06.410Z,0.96
2018-03-20T03:30:06.388Z,1.10
2018-03-20T03:31:06.355Z,1.12
2018-03-20T03:32:06.330Z,1.06
2018-03-20T03:33:06.305Z,1.10
2018-03-20T03:34:06.278Z,0.99
2018-03-20T03:35:06.253Z,1.00
2018-03-20T03:36:06.225Z,1.07
2018-03-20T03:37:06.262Z,1.02
2018-03-20T03:38:06.176Z,1.00
2018-03-20T03:39:06.153Z,1.03
2018-03-20T03:40:06.121Z,1.18
2018-03-20T03:41:06.095Z,1.22
2018-03-20T03:42:06.069Z,1.14
2018-03-20T03:43:06.045Z,1.12
2018-03-20T03:44:06.031Z,1.09
2018-03-20T03:45:05.995Z,1.09
2018-03-20T03:46:05.965Z,1.20
2018-03-20T03:47:05.978Z,1.12
2018-03-20T03:48:05.914Z,1.09
2018-03-20T03:49:05.887Z,1.18
2018-03-20T03:50:05.862Z,1.13
2018-03-20T03:51:05.839Z,1.16
2018-03-20T03:52:05.810Z,1.22
2018-03-20T03:53:05.784Z,1.27
2018-03-20T03:54:05.759Z,1.31
2018-03-20T03:55:05.730Z,1.40
2018-03-20T03:56:05.709Z,1.32
2018-03-20T03:57:05.731Z,1.30
2018-03-20T03:58:05.658Z,1.32
2018-03-20T03:59:05.633Z,1.31
2018-03-20T04:00:05.606Z,1.30
2018-03-20T04:01:05.578Z,1.28
2018-03-20T04:02:05.550Z,1.25
2018-03-20T04:03:05.531Z,1.34
2018-03-20T04:04:05.501Z,1.32
2018-03-20T04:05:05.478Z,1.30
2018-03-20T04:06:05.452Z,1.32
2018-03-20T04:07:05.623Z,1.30
2018-03-20T04:08:05.396Z,1.45
2018-03-20T04:09:05.371Z,1.34
2018-03-20T04:10:05.346Z,1.45
2018-03-20T04:11:05.322Z,1.48
2018-03-20T04:12:05.329Z,1.42
2018-03-20T04:13:05.267Z,1.43
2018-03-20T04:14:05.258Z,1.40
2018-03-20T04:15:05.232Z,1.39
2018-03-20T04:16:05.195Z,1.48
2018-03-20T04:17:05.173Z,1.46
2018-03-20T04:18:05.141Z,1.42
2018-03-20T04:19:05.114Z,1.46
2018-03-20T04:20:05.091Z,1.45
2018-03-20T04:21:05.065Z,1.45
2018-03-20T04:22:05.039Z,1.46
2018-03-20T04:23:05.039Z,1.50
2018-03-20T04:24:04.988Z,1.46
2018-03-20T04:25:04.964Z,1.56
2018-03-20T04:26:04.937Z,1.60
2018-03-20T04:27:04.914Z,1.61
2018-03-20T04:28:04.942Z,1.50
2018-03-20T04:29:04.864Z,1.60
2018-03-20T04:30:04.836Z,1.68
2018-03-20T04:31:04.813Z,1.68
2018-03-20T04:32:04.786Z,1.74
2018-03-20T04:33:04.760Z,1.68
2018-03-20T04:34:04.735Z,1.70
2018-03-20T04:35:04.707Z,1.68
2018-03-20T04:36:04.698Z,1.70
2018-03-20T04:37:04.656Z,1.67
2018-03-20T04:38:04.636Z,1.66
2018-03-20T04:39:04.670Z,1.81
2018-03-20T04:40:04.590Z,1.68
2018-03-20T04:41:04.558Z,1.70
2018-03-20T04:42:04.533Z,1.76
2018-03-20T04:43:04.507Z,1.70
2018-03-20T04:44:04.482Z,1.79
2018-03-20T04:45:04.458Z,1.68
2018-03-20T04:46:04.431Z,1.75
2018-03-20T04:47:04.405Z,1.71
2018-03-20T04:48:04.381Z,1.74
2018-03-20T04:49:04.354Z,1.82
2018-03-20T04:50:04.331Z,1.79
2018-03-20T04:51:04.308Z,1.81
2018-03-20T04:52:04.281Z,1.85
2018-03-20T04:53:04.255Z,1.75
2018-03-20T04:54:04.346Z,1.84
2018-03-20T04:55:04.215Z,1.79
2018-03-20T04:56:04.174Z,1.86
2018-03-20T04:57:04.149Z,1.89
2018-03-20T04:58:04.125Z,1.97
2018-03-20T04:59:04.101Z,1.93
2018-03-20T05:00:04.075Z,1.97
2018-03-20T05:01:04.050Z,1.95
2018-03-20T05:02:04.153Z,1.92
2018-03-20T05:03:03.999Z,1.97
2018-03-20T05:04:03.977Z,1.84
2018-03-20T05:05:04.056Z,1.88
2018-03-20T05:06:03.921Z,2.00
2018-03-20T05:07:03.899Z,1.93
2018-03-20T05:08:03.872Z,2.03
2018-03-20T05:09:03.849Z,2.07
2018-03-20T05:10:03.824Z,2.19
2018-03-20T05:11:03.798Z,2.10
2018-03-20T05:12:03.774Z,2.15
2018-03-20T05:13:03.745Z,2.08
2018-03-20T05:14:03.718Z,2.12
2018-03-20T05:15:03.698Z,2.14
2018-03-20T05:16:03.667Z,2.01
2018-03-20T05:17:03.648Z,2.18
2018-03-20T05:18:03.620Z,2.19
2018-03-20T05:19:03.593Z,2.16
2018-03-20T05:20:03.568Z,2.18
2018-03-20T05:21:03.540Z,2.16
2018-03-20T05:22:03.518Z,2.18
2018-03-20T05:23:03.492Z,2.14
2018-03-20T05:24:03.570Z,2.21
2018-03-20T05:25:03.443Z,2.21
2018-03-20T05:26:03.413Z,2.16
2018-03-20T05:27:03.389Z,2.26
2018-03-20T05:28:03.367Z,2.30
2018-03-20T05:29:03.336Z,2.26
2018-03-20T05:30:03.314Z,2.28
2018-03-20T05:31:03.291Z,2.32
2018-03-20T05:32:03.266Z,2.26
2018-03-20T05:33:03.236Z,2.36
2018-03-20T05:34:03.210Z,2.37
2018-03-20T05:35:03.192Z,2.33
2018-03-20T05:36:03.160Z,2.34
2018-03-20T05:37:03.140Z,2.39
2018-03-20T05:38:03.107Z,2.34
2018-03-20T05:39:03.085Z,2.36
2018-03-20T05:40:03.060Z,2.39
2018-03-20T05:41:03.035Z,2.41
2018-03-20T05:42:03.008Z,2.36
2018-03-20T05:43:02.984Z,2.34
2018-03-20T05:44:02.969Z,2.41
2018-03-20T05:45:02.939Z,2.36
2018-03-20T05:46:03.020Z,2.41
2018-03-20T05:47:02.884Z,2.39
2018-03-20T05:48:02.860Z,2.39
2018-03-20T05:49:02.841Z,2.47
2018-03-20T05:50:02.809Z,2.39
2018-03-20T05:51:02.783Z,2.44
2018-03-20T05:52:02.758Z,2.33
2018-03-20T05:53:02.732Z,2.47
2018-03-20T05:54:02.705Z,2.52
2018-03-20T05:55:02.688Z,2.44
2018-03-20T05:56:02.655Z,2.59
2018-03-20T05:57:02.637Z,2.58
2018-03-20T05:58:02.610Z,2.76
2018-03-20T05:59:02.606Z,2.72
2018-03-20T06:00:02.565Z,2.70
2018-03-20T06:01:02.532Z,2.80
2018-03-20T06:02:02.556Z,2.88
2018-03-20T06:03:02.481Z,2.73
2018-03-20T06:04:02.456Z,2.88
2018-03-20T06:05:02.483Z,2.88
2018-03-20T06:06:02.406Z,2.93
2018-03-20T06:07:02.381Z,2.94
2018-03-20T06:08:02.369Z,3.00
2018-03-20T06:09:02.330Z,2.93
2018-03-20T06:10:02.313Z,3.06
2018-03-20T06:11:02.283Z,3.05
2018-03-20T06:12:02.258Z,2.97
2018-03-20T06:13:02.235Z,2.97
2018-03-20T06:14:02.216Z,3.00
2018-03-20T06:15:02.195Z,3.00
2018-03-20T06:16:02.166Z,2.95
2018-03-20T06:17:02.135Z,2.94
2018-03-20T06:18:02.108Z,2.85
2018-03-20T06:19:02.091Z,2.93
2018-03-20T06:20:02.060Z,2.93
2018-03-20T06:21:02.031Z,2.97
2018-03-20T06:22:02.183Z,3.01
2018-03-20T06:23:01.984Z,2.95
2018-03-20T06:24:01.964Z,3.06
2018-03-20T06:25:01.932Z,3.06
2018-03-20T06:26:01.916Z,3.08
2018-03-20T06:27:01.882Z,3.09
2018-03-20T06:28:01.857Z,3.06
2018-03-20T06:29:01.833Z,3.12
2018-03-20T06:30:01.818Z,3.13
2018-03-20T06:31:01.783Z,3.18
2018-03-20T06:32:01.762Z,3.19
2018-03-20T06:33:01.737Z,3.27
2018-03-20T06:34:01.709Z,3.16
2018-03-20T06:35:01.682Z,3.24
2018-03-20T06:36:01.658Z,3.16
2018-03-20T06:37:01.635Z,3.21
2018-03-20T06:38:01.617Z,3.24
2018-03-20T06:39:01.582Z,3.33
2018-03-20T06:40:01.561Z,3.33
2018-03-20T06:41:01.537Z,3.33
2018-03-20T06:42:01.513Z,3.30
2018-03-20T06:43:01.485Z,3.27
2018-03-20T06:44:01.459Z,3.30
2018-03-20T06:45:01.436Z,3.29
2018-03-20T06:46:01.409Z,3.18
2018-03-20T06:47:01.389Z,3.29
2018-03-20T06:48:01.365Z,3.21
2018-03-20T06:49:01.355Z,3.21
2018-03-20T06:50:01.321Z,3.34
2018-03-20T06:51:01.302Z,3.31
2018-03-20T06:52:01.271Z,3.33
2018-03-20T06:53:01.237Z,3.33
2018-03-20T06:54:01.216Z,3.27
2018-03-20T06:55:01.189Z,3.41
2018-03-20T06:56:01.166Z,3.30
2018-03-20T06:57:01.138Z,3.16
2018-03-20T06:58:01.118Z,3.29
2018-03-20T06:59:01.112Z,3.18
2018-03-20T07:00:01.104Z,3.36
2018-03-20T07:01:01.041Z,3.29
2018-03-20T07:02:01.015Z,3.41
2018-03-20T07:03:00.990Z,3.27
2018-03-20T07:04:00.966Z,3.27
2018-03-20T07:05:00.939Z,3.27
2018-03-20T07:06:00.916Z,3.26
2018-03-20T07:07:00.898Z,3.41
2018-03-20T07:08:00.865Z,3.31
2018-03-20T07:09:00.851Z,3.29
2018-03-20T07:10:00.817Z,3.43
2018-03-20T07:11:00.841Z,3.33
2018-03-20T07:12:00.768Z,3.36
2018-03-20T07:13:00.743Z,3.41
2018-03-20T07:14:00.761Z,3.41
2018-03-20T07:15:00.704Z,3.37
2018-03-20T07:16:00.671Z,3.37
2018-03-20T07:17:00.645Z,3.36
2018-03-20T07:18:00.627Z,3.43
2018-03-20T07:19:00.595Z,3.34
2018-03-20T07:20:00.572Z,3.43
2018-03-20T07:21:00.546Z,3.45
2018-03-20T07:22:00.531Z,3.50
2018-03-20T07:23:00.501Z,3.53
2018-03-20T07:24:00.474Z,3.58
2018-03-20T07:25:00.451Z,3.56
2018-03-20T07:26:00.450Z,3.50
2018-03-20T07:27:00.405Z,3.61
2018-03-20T07:28:00.377Z,3.66
2018-03-20T07:29:00.351Z,3.68
2018-03-20T07:30:00.333Z,3.76
2018-03-20T07:31:00.301Z,3.85
2018-03-20T07:32:00.278Z,3.73
2018-03-20T07:33:00.300Z,3.88
2018-03-20T07:34:00.239Z,3.86
2018-03-20T07:35:00.206Z,3.89
2018-03-20T07:36:00.183Z,3.99
2018-03-20T07:37:00.157Z,4.00
2018-03-20T07:38:00.141Z,4.20
2018-03-20T07:39:00.110Z,4.20
2018-03-20T07:40:00.092Z,4.32
2018-03-20T07:41:00.061Z,4.32
2018-03-20T07:42:00.040Z,4.38
2018-03-20T07:43:00.017Z,4.39
2018-03-20T07:43:59.989Z,4.34
2018-03-20T07:44:59.964Z,4.31
2018-03-20T07:45:59.942Z,4.40
2018-03-20T07:46:59.919Z,4.38
2018-03-20T07:47:59.907Z,4.32
2018-03-20T07:48:59.873Z,4.32
2018-03-20T07:49:59.848Z,4.52
2018-03-20T07:50:59.824Z,4.50
2018-03-20T07:51:59.799Z,4.61
2018-03-20T07:52:59.780Z,4.79
2018-03-20T07:53:59.754Z,4.76
2018-03-20T07:54:59.751Z,4.79
2018-03-20T07:55:59.709Z,4.74
2018-03-20T07:56:59.681Z,4.76
2018-03-20T07:57:59.668Z,4.66
2018-03-20T07:58:59.642Z,4.64
2018-03-20T07:59:59.612Z,4.50
2018-03-20T08:00:59.590Z,4.57
2018-03-20T08:01:59.577Z,4.49
2018-03-20T08:02:59.541Z,4.46
2018-03-20T08:03:59.530Z,4.53
2018-03-20T08:04:59.519Z,4.49
2018-03-20T08:05:59.475Z,4.56
2018-03-20T08:06:59.455Z,4.57
2018-03-20T08:07:59.431Z,4.64
2018-03-20T08:08:59.407Z,4.68
2018-03-20T08:09:59.384Z,4.90
2018-03-20T08:10:59.369Z,5.37
2018-03-20T08:11:59.340Z,5.22
2018-03-20T08:12:59.315Z,5.51
2018-03-20T08:13:59.288Z,6.07
2018-03-20T08:14:59.362Z,6.28
2018-03-20T08:15:59.248Z,6.43
2018-03-20T08:16:59.222Z,6.70
2018-03-20T08:17:59.202Z,6.65
2018-03-20T08:18:59.181Z,7.13
2018-03-20T08:19:59.174Z,7.25
2018-03-20T08:20:59.135Z,7.31
2018-03-20T08:21:59.114Z,7.47
2018-03-20T08:22:59.094Z,7.48
2018-03-20T08:23:59.069Z,7.77
2018-03-20T08:24:59.050Z,8.17
2018-03-20T08:25:59.028Z,8.31
2018-03-20T08:26:59.009Z,8.41
2018-03-20T08:27:59.082Z,8.35
2018-03-20T08:28:58.973Z,8.24
2018-03-20T08:29:58.954Z,8.31
2018-03-20T08:30:59.034Z,8.32
2018-03-20T08:31:58.914Z,8.44
2018-03-20T08:32:58.896Z,8.72
2018-03-20T08:33:58.875Z,8.71
2018-03-20T08:34:58.854Z,8.71
2018-03-20T08:35:58.835Z,8.97
2018-03-20T08:36:58.814Z,8.89
2018-03-20T08:37:58.803Z,8.84
2018-03-20T08:38:58.792Z,8.86
2018-03-20T08:39:58.763Z,8.63
2018-03-20T08:40:58.742Z,8.87
2018-03-20T08:41:58.726Z,9.16
2018-03-20T08:42:58.715Z,9.19
2018-03-20T08:43:58.692Z,9.16
2018-03-20T08:44:58.674Z,9.31
2018-03-20T08:45:58.655Z,9.48
2018-03-20T08:46:58.636Z,9.39
2018-03-20T08:47:58.630Z,9.58
2018-03-20T08:48:58.607Z,9.63
2018-03-20T08:49:58.645Z,9.73
2018-03-20T08:50:58.583Z,9.91
2018-03-20T08:51:58.566Z,9.80
2018-03-20T08:52:58.550Z,10.02
2018-03-20T08:53:58.531Z,9.70
2018-03-20T08:54:58.520Z,9.81
2018-03-20T08:55:58.501Z,10.21
2018-03-20T08:56:58.488Z,10.41
2018-03-20T08:57:58.475Z,10.65
2018-03-20T08:58:58.457Z,10.31
2018-03-20T08:59:58.442Z,10.41
2018-03-20T09:00:58.446Z,10.64
2018-03-20T09:01:58.416Z,10.76
2018-03-20T09:02:58.410Z,10.49
2018-03-20T09:03:58.389Z,10.39
2018-03-20T09:04:58.374Z,10.72
2018-03-20T09:05:58.366Z,10.62
2018-03-20T09:06:58.349Z,10.31
2018-03-20T09:07:58.342Z,10.15
2018-03-20T09:08:58.324Z,10.46
2018-03-20T09:09:58.310Z,10.23
2018-03-20T09:10:58.312Z,10.46
2018-03-20T09:11:58.284Z,10.67
2018-03-20T09:12:58.272Z,10.94
2018-03-20T09:13:58.258Z,10.72
2018-03-20T09:14:58.257Z,11.10
2018-03-20T09:15:58.243Z,11.34
2018-03-20T09:16:58.223Z,11.81
2018-03-20T09:17:58.257Z,12.08
2018-03-20T09:18:58.198Z,12.15
2018-03-20T09:19:58.187Z,12.05
2018-03-20T09:20:58.178Z,12.05
2018-03-20T09:21:58.169Z,11.59
2018-03-20T09:22:58.163Z,11.76
2018-03-20T09:23:58.165Z,12.11
2018-03-20T09:24:58.133Z,12.03
2018-03-20T09:25:58.128Z,11.88
2018-03-20T09:26:58.167Z,11.85
2018-03-20T09:27:58.101Z,11.85
2018-03-20T09:28:58.090Z,11.83
2018-03-20T09:29:58.079Z,12.35
2018-03-20T09:30:58.079Z,12.54
2018-03-20T09:31:58.067Z,11.70
2018-03-20T09:32:58.050Z,11.62
2018-03-20T09:33:58.073Z,11.86
2018-03-20T09:34:58.037Z,11.73
2018-03-20T09:35:58.026Z,11.81
2018-03-20T09:36:58.020Z,11.83
2018-03-20T09:37:58.007Z,12.20
2018-03-20T09:38:57.995Z,12.44
2018-03-20T09:39:57.994Z,12.55
2018-03-20T09:40:58.052Z,12.17
2018-03-20T09:41:57.982Z,12.40
2018-03-20T09:42:57.958Z,12.55
2018-03-20T09:43:57.957Z,12.58
2018-03-20T09:44:57.938Z,12.36
2018-03-20T09:45:57.928Z,12.73
2018-03-20T09:46:57.924Z,12.94
2018-03-20T09:47:57.927Z,13.19
2018-03-20T09:48:57.936Z,12.65
2018-03-20T09:49:57.894Z,12.76
2018-03-20T09:50:57.886Z,13.30
2018-03-20T09:51:57.877Z,13.08
2018-03-20T09:52:57.867Z,12.91
2018-03-20T09:53:57.889Z,13.37
2018-03-20T09:54:57.853Z,13.75
2018-03-20T09:55:57.845Z,13.61
2018-03-20T09:56:57.837Z,13.02
2018-03-20T09:57:57.827Z,12.70
2018-03-20T09:58:57.824Z,11.89
2018-03-20T09:59:57.811Z,12.10
2018-03-20T10:00:57.804Z,12.15
2018-03-20T10:01:57.792Z,12.39
2018-03-20T10:02:57.782Z,12.61
2018-03-20T10:03:57.785Z,12.94
2018-03-20T10:04:57.781Z,13.06
2018-03-20T10:05:57.760Z,13.43
2018-03-20T10:06:57.799Z,13.45
2018-03-20T10:07:57.741Z,13.16
2018-03-20T10:08:57.732Z,13.08
2018-03-20T10:09:57.759Z,12.69
2018-03-20T10:10:57.712Z,12.87
2018-03-20T10:11:57.706Z,12.94
2018-03-20T10:12:57.696Z,13.31
2018-03-20T10:13:57.695Z,13.28
2018-03-20T10:14:57.691Z,13.46
2018-03-20T10:15:57.674Z,13.42
2018-03-20T10:16:57.660Z,13.45
2018-03-20T10:17:57.651Z,13.50
2018-03-20T10:18:57.647Z,13.57
2018-03-20T10:19:57.632Z,13.61
2018-03-20T10:20:57.624Z,13.09
2018-03-20T10:21:57.621Z,13.11
2018-03-20T10:22:57.701Z,13.05
2018-03-20T10:23:57.600Z,13.33
2018-03-20T10:24:57.628Z,13.28
2018-03-20T10:25:57.580Z,13.05
2018-03-20T10:26:57.572Z,12.50
2018-03-20T10:27:57.563Z,12.87
2018-03-20T10:28:57.556Z,12.62
2018-03-20T10:29:57.543Z,12.66
2018-03-20T10:30:57.542Z,13.11
2018-03-20T10:31:57.531Z,13.55
2018-03-20T10:32:57.521Z,13.21
2018-03-20T10:33:57.526Z,12.83
2018-03-20T10:34:57.502Z,12.76
2018-03-20T10:35:57.496Z,13.36
2018-03-20T10:36:57.483Z,13.57
2018-03-20T10:37:57.473Z,13.19
2018-03-20T10:38:57.474Z,13.40
2018-03-20T10:39:57.456Z,13.39
2018-03-20T10:40:57.453Z,13.16
2018-03-20T10:41:57.444Z,12.78
2018-03-20T10:42:57.431Z,12.76
2018-03-20T10:43:57.428Z,12.78
2018-03-20T10:44:57.418Z,12.93
2018-03-20T10:45:57.422Z,12.73
2018-03-20T10:46:57.391Z,12.62
2018-03-20T10:47:57.388Z,12.87
2018-03-20T10:48:57.413Z,13.16
2018-03-20T10:49:57.370Z,13.02
2018-03-20T10:50:57.359Z,13.03
2018-03-20T10:51:57.362Z,13.33
2018-03-20T10:52:57.340Z,13.21
2018-03-20T10:53:57.374Z,13.27
2018-03-20T10:54:57.321Z,13.02
2018-03-20T10:55:57.312Z,13.45
2018-03-20T10:56:57.314Z,13.64
2018-03-20T10:57:57.297Z,13.64
2018-03-20T10:58:57.294Z,13.62
2018-03-20T10:59:57.279Z,13.24
2018-03-20T11:00:57.272Z,13.06
2018-03-20T11:01:57.259Z,12.75
2018-03-20T11:02:57.256Z,12.90
2018-03-20T11:03:57.245Z,13.12
2018-03-20T11:04:57.235Z,12.90
2018-03-20T11:05:57.229Z,12.63
2018-03-20T11:06:57.218Z,13.09
2018-03-20T11:07:57.205Z,12.91
2018-03-20T11:08:57.196Z,13.01
2018-03-20T11:09:57.189Z,13.31
2018-03-20T11:10:57.180Z,12.76
2018-03-20T11:11:57.174Z,12.61
2018-03-20T11:12:57.266Z,12.78
2018-03-20T11:13:57.155Z,12.99
2018-03-20T11:14:57.169Z,12.78
2018-03-20T11:15:57.138Z,13.05
2018-03-20T11:16:57.124Z,12.94
2018-03-20T11:17:57.123Z,13.33
2018-03-20T11:18:57.108Z,13.76
2018-03-20T11:19:57.098Z,13.67
2018-03-20T11:20:57.088Z,13.67
2018-03-20T11:21:57.086Z,12.99
2018-03-20T11:22:57.070Z,12.65
2018-03-20T11:23:57.063Z,12.51
2018-03-20T11:24:57.051Z,12.93
2018-03-20T11:25:57.042Z,13.17
2018-03-20T11:26:57.032Z,13.26
2018-03-20T11:27:57.025Z,12.87
2018-03-20T11:28:57.028Z,12.72
2018-03-20T11:29:57.042Z,13.02
2018-03-20T11:30:56.994Z,13.06
2018-03-20T11:31:56.986Z,13.11
2018-03-20T11:32:56.981Z,13.24
2018-03-20T11:33:57.112Z,13.08
2018-03-20T11:34:56.971Z,13.06
2018-03-20T11:35:56.964Z,12.55
2018-03-20T11:36:57.042Z,12.14
2018-03-20T11:37:56.935Z,12.30
2018-03-20T11:38:56.928Z,12.23
2018-03-20T11:39:56.920Z,12.61
2018-03-20T11:40:56.903Z,12.65
2018-03-20T11:41:56.893Z,12.87
2018-03-20T11:42:56.882Z,12.90
2018-03-20T11:43:56.905Z,12.84
2018-03-20T11:44:56.864Z,12.26
2018-03-20T11:45:56.852Z,12.28
2018-03-20T11:46:56.858Z,11.10
2018-03-20T11:47:56.835Z,11.58
2018-03-20T11:48:56.822Z,11.78
2018-03-20T11:49:56.837Z,11.83
2018-03-20T11:50:56.800Z,12.05
2018-03-20T11:51:56.792Z,11.43
2018-03-20T11:52:56.779Z,11.59
2018-03-20T11:53:56.768Z,11.52
2018-03-20T11:54:56.764Z,11.35
2018-03-20T11:55:56.756Z,11.68
2018-03-20T11:56:56.733Z,12.15
2018-03-20T11:57:56.720Z,11.71
2018-03-20T11:58:56.709Z,11.83
2018-03-20T11:59:56.699Z,11.93
2018-03-20T12:00:56.695Z,11.77
2018-03-20T12:01:56.680Z,11.67
2018-03-20T12:02:56.722Z,11.83
2018-03-20T12:03:56.652Z,11.86
2018-03-20T12:04:56.640Z,12.12
2018-03-20T12:05:56.729Z,12.11
2018-03-20T12:06:56.609Z,11.40
2018-03-20T12:07:56.596Z,11.45
2018-03-20T12:08:56.581Z,11.31
2018-03-20T12:09:56.567Z,11.52
2018-03-20T12:10:56.561Z,11.56
2018-03-20T12:11:56.545Z,11.13
2018-03-20T12:12:56.526Z,11.62
2018-03-20T12:13:56.511Z,11.45
2018-03-20T12:14:56.511Z,11.73
2018-03-20T12:15:56.486Z,11.80
2018-03-20T12:16:56.474Z,11.49
2018-03-20T12:17:56.462Z,11.31
2018-03-20T12:18:56.436Z,11.25
2018-03-20T12:19:56.423Z,11.38
2018-03-20T12:20:56.409Z,11.76
2018-03-20T12:21:56.389Z,11.44
2018-03-20T12:22:56.390Z,11.43
2018-03-20T12:23:56.398Z,11.53
2018-03-20T12:24:56.345Z,11.38
2018-03-20T12:25:56.326Z,11.49
2018-03-20T12:26:56.341Z,10.87
2018-03-20T12:27:56.295Z,10.41
2018-03-20T12:28:56.274Z,9.77
2018-03-20T12:29:56.261Z,9.81
2018-03-20T12:30:56.242Z,9.76
2018-03-20T12:31:56.354Z,9.59
2018-03-20T12:32:56.207Z,9.67
2018-03-20T12:33:56.191Z,9.47
2018-03-20T12:34:56.174Z,9.51
2018-03-20T12:35:56.157Z,9.73
2018-03-20T12:36:56.133Z,9.85
2018-03-20T12:37:56.115Z,9.94
2018-03-20T12:38:56.096Z,9.92
2018-03-20T12:39:56.078Z,9.82
2018-03-20T12:40:56.064Z,9.94
2018-03-20T12:41:56.051Z,9.97
2018-03-20T12:42:56.027Z,10.00
2018-03-20T12:43:56.006Z,9.94
2018-03-20T12:44:55.985Z,10.02
2018-03-20T12:45:55.972Z,9.97
2018-03-20T12:46:55.956Z,10.05
2018-03-20T12:47:55.934Z,9.94
2018-03-20T12:48:56.000Z,9.87
2018-03-20T12:49:55.892Z,9.88
2018-03-20T12:50:55.871Z,9.88
2018-03-20T12:51:55.907Z,10.07
2018-03-20T12:52:55.850Z,10.06
2018-03-20T12:53:55.817Z,10.13
2018-03-20T12:54:55.805Z,10.12
2018-03-20T12:55:55.785Z,9.85
2018-03-20T12:56:55.761Z,9.82
2018-03-20T12:57:55.742Z,9.91
2018-03-20T12:58:55.721Z,9.95
2018-03-20T12:59:55.710Z,10.10
2018-03-20T13:00:55.687Z,10.10
2018-03-20T13:01:55.662Z,9.92
2018-03-20T13:02:55.644Z,10.07
2018-03-20T13:03:55.630Z,10.06
2018-03-20T13:04:55.670Z,10.05
2018-03-20T13:05:55.588Z,9.85
2018-03-20T13:06:55.571Z,9.82
2018-03-20T13:07:55.595Z,9.69
2018-03-20T13:08:55.529Z,9.58
2018-03-20T13:09:55.512Z,9.59
2018-03-20T13:10:55.496Z,9.49